sensor_id;sensor_type;location;lat;lon;timestamp;P1;durP1;ratioP1;P2;durP2;ratioP2
53151;SDS011;39234;53.158;6.322;2023-03-23T00:02:23;9.38;;;6.50;;
53151;SDS011;39234;53.158;6.322;2023-03-23T00:04:53;12.35;;;7.20;;
53151;SDS011;39234;53.158;6.322;2023-03-23T00:07:19;16.58;;;9.18;;
53151;SDS011;39234;53.158;6.322;2023-03-23T00:09:52;12.93;;;8.13;;
53151;SDS011;39234;53.158;6.322;2023-03-23T00:12:26;15.10;;;9.68;;
53151;SDS011;39234;53.158;6.322;2023-03-23T00:15:00;14.43;;;10.30;;
53151;SDS011;39234;53.158;6.322;2023-03-23T00:17:31;17.50;;;11.30;;
53151;SDS011;39234;53.158;6.322;2023-03-23T00:20:01;13.02;;;9.50;;
53151;SDS011;39234;53.158;6.322;2023-03-23T00:22:30;15.00;;;9.90;;
53151;SDS011;39234;53.158;6.322;2023-03-23T00:24:56;22.77;;;12.25;;
53151;SDS011;39234;53.158;6.322;2023-03-23T00:27:22;18.15;;;13.48;;
53151;SDS011;39234;53.158;6.322;2023-03-23T00:29:49;19.92;;;14.32;;
53151;SDS011;39234;53.158;6.322;2023-03-23T00:32:18;19.98;;;14.48;;
53151;SDS011;39234;53.158;6.322;2023-03-23T00:34:45;18.85;;;14.35;;
53151;SDS011;39234;53.158;6.322;2023-03-23T00:37:13;20.67;;;16.65;;
53151;SDS011;39234;53.158;6.322;2023-03-23T00:39:41;22.52;;;16.67;;
53151;SDS011;39234;53.158;6.322;2023-03-23T00:42:09;24.88;;;17.73;;
53151;SDS011;39234;53.158;6.322;2023-03-23T00:44:35;22.77;;;17.67;;
53151;SDS011;39234;53.158;6.322;2023-03-23T00:47:01;20.17;;;18.05;;
53151;SDS011;39234;53.158;6.322;2023-03-23T00:49:28;24.35;;;17.67;;
53151;SDS011;39234;53.158;6.322;2023-03-23T00:51:55;18.90;;;15.48;;
53151;SDS011;39234;53.158;6.322;2023-03-23T00:54:23;17.60;;;11.10;;
53151;SDS011;39234;53.158;6.322;2023-03-23T00:56:50;10.55;;;6.50;;
53151;SDS011;39234;53.158;6.322;2023-03-23T00:59:16;8.38;;;3.85;;
53151;SDS011;39234;53.158;6.322;2023-03-23T01:01:43;8.48;;;3.85;;
53151;SDS011;39234;53.158;6.322;2023-03-23T01:04:09;6.70;;;3.30;;
53151;SDS011;39234;53.158;6.322;2023-03-23T01:06:37;6.82;;;3.20;;
53151;SDS011;39234;53.158;6.322;2023-03-23T01:09:08;9.05;;;3.42;;
53151;SDS011;39234;53.158;6.322;2023-03-23T01:11:44;5.45;;;2.90;;
53151;SDS011;39234;53.158;6.322;2023-03-23T01:14:12;7.03;;;3.08;;
53151;SDS011;39234;53.158;6.322;2023-03-23T01:16:38;7.25;;;3.42;;
53151;SDS011;39234;53.158;6.322;2023-03-23T01:19:05;7.18;;;4.10;;
53151;SDS011;39234;53.158;6.322;2023-03-23T01:21:31;6.82;;;3.40;;
53151;SDS011;39234;53.158;6.322;2023-03-23T01:23:57;9.90;;;4.35;;
53151;SDS011;39234;53.158;6.322;2023-03-23T01:26:24;11.50;;;5.57;;
53151;SDS011;39234;53.158;6.322;2023-03-23T01:28:51;9.93;;;6.10;;
53151;SDS011;39234;53.158;6.322;2023-03-23T01:31:22;10.30;;;6.03;;
53151;SDS011;39234;53.158;6.322;2023-03-23T01:33:49;12.55;;;6.32;;
53151;SDS011;39234;53.158;6.322;2023-03-23T01:36:17;12.40;;;6.93;;
53151;SDS011;39234;53.158;6.322;2023-03-23T01:38:45;12.70;;;7.55;;
53151;SDS011;39234;53.158;6.322;2023-03-23T01:41:12;13.48;;;7.88;;
53151;SDS011;39234;53.158;6.322;2023-03-23T01:46:26;12.65;;;7.80;;
53151;SDS011;39234;53.158;6.322;2023-03-23T01:48:54;13.00;;;8.85;;
53151;SDS011;39234;53.158;6.322;2023-03-23T01:51:22;11.45;;;7.93;;
53151;SDS011;39234;53.158;6.322;2023-03-23T01:53:51;14.93;;;7.40;;
53151;SDS011;39234;53.158;6.322;2023-03-23T01:56:22;14.17;;;7.10;;
53151;SDS011;39234;53.158;6.322;2023-03-23T01:58:55;11.07;;;7.30;;
53151;SDS011;39234;53.158;6.322;2023-03-23T02:01:21;13.40;;;7.00;;
53151;SDS011;39234;53.158;6.322;2023-03-23T02:03:50;14.80;;;7.25;;
53151;SDS011;39234;53.158;6.322;2023-03-23T02:06:17;12.88;;;7.22;;
53151;SDS011;39234;53.158;6.322;2023-03-23T02:08:43;11.45;;;6.20;;
53151;SDS011;39234;53.158;6.322;2023-03-23T02:11:17;13.73;;;7.18;;
53151;SDS011;39234;53.158;6.322;2023-03-23T02:13:44;11.68;;;6.13;;
53151;SDS011;39234;53.158;6.322;2023-03-23T02:18:50;13.98;;;6.40;;
53151;SDS011;39234;53.158;6.322;2023-03-23T02:26:33;9.05;;;5.15;;
53151;SDS011;39234;53.158;6.322;2023-03-23T02:31:56;9.70;;;5.53;;
53151;SDS011;39234;53.158;6.322;2023-03-23T02:35:10;10.85;;;4.88;;
53151;SDS011;39234;53.158;6.322;2023-03-23T02:37:38;11.18;;;6.53;;
53151;SDS011;39234;53.158;6.322;2023-03-23T02:40:17;10.77;;;5.47;;
53151;SDS011;39234;53.158;6.322;2023-03-23T02:42:47;13.02;;;6.40;;
53151;SDS011;39234;53.158;6.322;2023-03-23T02:45:17;13.38;;;4.85;;
53151;SDS011;39234;53.158;6.322;2023-03-23T02:47:45;9.30;;;4.95;;
53151;SDS011;39234;53.158;6.322;2023-03-23T02:50:14;10.43;;;5.20;;
53151;SDS011;39234;53.158;6.322;2023-03-23T02:52:41;13.82;;;5.70;;
53151;SDS011;39234;53.158;6.322;2023-03-23T02:55:08;10.63;;;4.47;;
53151;SDS011;39234;53.158;6.322;2023-03-23T02:57:36;12.43;;;4.63;;
53151;SDS011;39234;53.158;6.322;2023-03-23T03:00:07;13.45;;;5.20;;
53151;SDS011;39234;53.158;6.322;2023-03-23T03:02:39;8.40;;;4.53;;
53151;SDS011;39234;53.158;6.322;2023-03-23T03:05:18;12.13;;;5.53;;
53151;SDS011;39234;53.158;6.322;2023-03-23T03:10:32;10.40;;;5.47;;
53151;SDS011;39234;53.158;6.322;2023-03-23T03:15:37;10.85;;;4.28;;
53151;SDS011;39234;53.158;6.322;2023-03-23T03:18:31;10.15;;;4.40;;
53151;SDS011;39234;53.158;6.322;2023-03-23T03:21:09;11.93;;;4.45;;
53151;SDS011;39234;53.158;6.322;2023-03-23T03:23:39;9.70;;;4.45;;
53151;SDS011;39234;53.158;6.322;2023-03-23T03:26:07;9.85;;;4.50;;
53151;SDS011;39234;53.158;6.322;2023-03-23T03:28:36;9.55;;;4.50;;
53151;SDS011;39234;53.158;6.322;2023-03-23T03:31:03;8.07;;;4.28;;
53151;SDS011;39234;53.158;6.322;2023-03-23T03:33:30;10.60;;;4.00;;
53151;SDS011;39234;53.158;6.322;2023-03-23T03:35:59;10.25;;;4.88;;
53151;SDS011;39234;53.158;6.322;2023-03-23T03:38:27;8.68;;;4.32;;
53151;SDS011;39234;53.158;6.322;2023-03-23T03:40:53;11.07;;;5.70;;
53151;SDS011;39234;53.158;6.322;2023-03-23T03:43:20;9.32;;;4.82;;
53151;SDS011;39234;53.158;6.322;2023-03-23T03:45:45;11.13;;;5.20;;
53151;SDS011;39234;53.158;6.322;2023-03-23T03:48:11;11.57;;;4.63;;
53151;SDS011;39234;53.158;6.322;2023-03-23T03:50:37;12.05;;;5.07;;
53151;SDS011;39234;53.158;6.322;2023-03-23T03:53:04;10.40;;;5.38;;
53151;SDS011;39234;53.158;6.322;2023-03-23T03:55:30;12.23;;;5.63;;
53151;SDS011;39234;53.158;6.322;2023-03-23T03:58:00;14.57;;;5.95;;
53151;SDS011;39234;53.158;6.322;2023-03-23T04:00:29;10.80;;;4.88;;
53151;SDS011;39234;53.158;6.322;2023-03-23T04:02:55;8.75;;;4.22;;
53151;SDS011;39234;53.158;6.322;2023-03-23T04:05:21;9.40;;;4.65;;
53151;SDS011;39234;53.158;6.322;2023-03-23T04:07:49;11.52;;;4.07;;
53151;SDS011;39234;53.158;6.322;2023-03-23T04:10:17;8.30;;;4.07;;
53151;SDS011;39234;53.158;6.322;2023-03-23T04:12:46;8.18;;;3.17;;
53151;SDS011;39234;53.158;6.322;2023-03-23T04:15:15;7.95;;;3.00;;
53151;SDS011;39234;53.158;6.322;2023-03-23T04:17:41;9.05;;;4.30;;
53151;SDS011;39234;53.158;6.322;2023-03-23T04:20:08;8.13;;;3.65;;
53151;SDS011;39234;53.158;6.322;2023-03-23T04:22:38;6.97;;;3.67;;
53151;SDS011;39234;53.158;6.322;2023-03-23T04:25:04;9.68;;;3.50;;
53151;SDS011;39234;53.158;6.322;2023-03-23T04:27:31;11.00;;;3.33;;
53151;SDS011;39234;53.158;6.322;2023-03-23T04:29:57;9.13;;;2.40;;
53151;SDS011;39234;53.158;6.322;2023-03-23T04:32:26;7.22;;;2.60;;
53151;SDS011;39234;53.158;6.322;2023-03-23T04:34:59;9.07;;;2.65;;
53151;SDS011;39234;53.158;6.322;2023-03-23T04:37:26;7.88;;;3.00;;
53151;SDS011;39234;53.158;6.322;2023-03-23T04:39:57;6.65;;;2.67;;
53151;SDS011;39234;53.158;6.322;2023-03-23T04:42:31;6.57;;;2.20;;
53151;SDS011;39234;53.158;6.322;2023-03-23T04:44:57;10.40;;;2.40;;
53151;SDS011;39234;53.158;6.322;2023-03-23T04:47:24;10.93;;;2.60;;
53151;SDS011;39234;53.158;6.322;2023-03-23T04:49:54;10.88;;;2.75;;
53151;SDS011;39234;53.158;6.322;2023-03-23T04:52:21;11.60;;;2.30;;
53151;SDS011;39234;53.158;6.322;2023-03-23T04:54:47;9.00;;;2.05;;
53151;SDS011;39234;53.158;6.322;2023-03-23T04:57:13;12.40;;;2.40;;
53151;SDS011;39234;53.158;6.322;2023-03-23T04:59:40;8.55;;;2.70;;
53151;SDS011;39234;53.158;6.322;2023-03-23T05:02:06;10.13;;;2.53;;
53151;SDS011;39234;53.158;6.322;2023-03-23T05:04:32;14.02;;;3.13;;
53151;SDS011;39234;53.158;6.322;2023-03-23T05:06:58;9.13;;;3.20;;
53151;SDS011;39234;53.158;6.322;2023-03-23T05:09:25;9.13;;;2.92;;
53151;SDS011;39234;53.158;6.322;2023-03-23T05:11:50;9.95;;;3.20;;
53151;SDS011;39234;53.158;6.322;2023-03-23T05:14:16;11.00;;;3.30;;
53151;SDS011;39234;53.158;6.322;2023-03-23T05:16:42;12.35;;;3.67;;
53151;SDS011;39234;53.158;6.322;2023-03-23T05:19:12;15.18;;;4.28;;
53151;SDS011;39234;53.158;6.322;2023-03-23T05:21:38;14.13;;;4.03;;
53151;SDS011;39234;53.158;6.322;2023-03-23T05:24:03;13.60;;;3.58;;
53151;SDS011;39234;53.158;6.322;2023-03-23T05:26:30;14.68;;;3.25;;
53151;SDS011;39234;53.158;6.322;2023-03-23T05:28:57;11.68;;;3.33;;
53151;SDS011;39234;53.158;6.322;2023-03-23T05:31:24;13.77;;;3.15;;
53151;SDS011;39234;53.158;6.322;2023-03-23T05:33:50;18.73;;;2.95;;
53151;SDS011;39234;53.158;6.322;2023-03-23T05:36:16;13.65;;;3.00;;
53151;SDS011;39234;53.158;6.322;2023-03-23T05:38:42;18.70;;;4.07;;
53151;SDS011;39234;53.158;6.322;2023-03-23T05:41:19;21.80;;;3.50;;
53151;SDS011;39234;53.158;6.322;2023-03-23T05:43:46;20.88;;;3.55;;
53151;SDS011;39234;53.158;6.322;2023-03-23T05:46:11;21.85;;;4.25;;
53151;SDS011;39234;53.158;6.322;2023-03-23T05:48:37;21.90;;;3.60;;
53151;SDS011;39234;53.158;6.322;2023-03-23T05:51:03;18.23;;;4.95;;
53151;SDS011;39234;53.158;6.322;2023-03-23T05:53:29;18.67;;;3.90;;
53151;SDS011;39234;53.158;6.322;2023-03-23T05:56:02;19.70;;;3.90;;
53151;SDS011;39234;53.158;6.322;2023-03-23T05:58:28;19.13;;;4.10;;
53151;SDS011;39234;53.158;6.322;2023-03-23T06:00:54;17.38;;;3.20;;
53151;SDS011;39234;53.158;6.322;2023-03-23T06:03:20;25.08;;;4.93;;
53151;SDS011;39234;53.158;6.322;2023-03-23T06:05:47;28.13;;;5.63;;
53151;SDS011;39234;53.158;6.322;2023-03-23T06:08:13;23.30;;;4.32;;
53151;SDS011;39234;53.158;6.322;2023-03-23T06:10:39;19.63;;;3.75;;
53151;SDS011;39234;53.158;6.322;2023-03-23T06:13:05;20.85;;;4.15;;
53151;SDS011;39234;53.158;6.322;2023-03-23T06:15:31;18.15;;;3.47;;
53151;SDS011;39234;53.158;6.322;2023-03-23T06:17:58;20.52;;;3.63;;
53151;SDS011;39234;53.158;6.322;2023-03-23T06:20:24;29.95;;;4.85;;
53151;SDS011;39234;53.158;6.322;2023-03-23T06:22:50;20.13;;;3.85;;
53151;SDS011;39234;53.158;6.322;2023-03-23T06:25:17;26.98;;;5.07;;
53151;SDS011;39234;53.158;6.322;2023-03-23T06:27:43;21.98;;;4.28;;
53151;SDS011;39234;53.158;6.322;2023-03-23T06:30:10;20.80;;;4.32;;
53151;SDS011;39234;53.158;6.322;2023-03-23T06:32:37;14.52;;;2.97;;
53151;SDS011;39234;53.158;6.322;2023-03-23T06:35:04;18.05;;;3.55;;
53151;SDS011;39234;53.158;6.322;2023-03-23T06:37:31;19.67;;;3.22;;
53151;SDS011;39234;53.158;6.322;2023-03-23T06:39:57;12.35;;;2.10;;
53151;SDS011;39234;53.158;6.322;2023-03-23T06:42:23;15.55;;;3.38;;
53151;SDS011;39234;53.158;6.322;2023-03-23T06:44:50;16.42;;;3.20;;
53151;SDS011;39234;53.158;6.322;2023-03-23T06:47:16;11.25;;;2.10;;
53151;SDS011;39234;53.158;6.322;2023-03-23T06:49:42;16.85;;;2.65;;
53151;SDS011;39234;53.158;6.322;2023-03-23T06:52:07;15.35;;;2.10;;
53151;SDS011;39234;53.158;6.322;2023-03-23T06:54:33;10.45;;;1.95;;
53151;SDS011;39234;53.158;6.322;2023-03-23T06:56:59;13.48;;;2.75;;
53151;SDS011;39234;53.158;6.322;2023-03-23T06:59:26;19.38;;;3.40;;
53151;SDS011;39234;53.158;6.322;2023-03-23T07:01:51;20.17;;;2.55;;
53151;SDS011;39234;53.158;6.322;2023-03-23T07:04:17;16.38;;;3.65;;
53151;SDS011;39234;53.158;6.322;2023-03-23T07:06:43;14.73;;;3.30;;
53151;SDS011;39234;53.158;6.322;2023-03-23T07:09:09;21.25;;;3.42;;
53151;SDS011;39234;53.158;6.322;2023-03-23T07:11:35;19.30;;;3.50;;
53151;SDS011;39234;53.158;6.322;2023-03-23T07:14:01;22.63;;;3.75;;
53151;SDS011;39234;53.158;6.322;2023-03-23T07:16:27;21.48;;;3.35;;
53151;SDS011;39234;53.158;6.322;2023-03-23T07:18:53;27.75;;;3.92;;
53151;SDS011;39234;53.158;6.322;2023-03-23T07:21:19;21.88;;;4.63;;
53151;SDS011;39234;53.158;6.322;2023-03-23T07:23:44;29.77;;;4.35;;
53151;SDS011;39234;53.158;6.322;2023-03-23T07:26:11;26.85;;;4.53;;
53151;SDS011;39234;53.158;6.322;2023-03-23T07:28:37;24.90;;;5.28;;
53151;SDS011;39234;53.158;6.322;2023-03-23T07:31:05;29.67;;;4.68;;
53151;SDS011;39234;53.158;6.322;2023-03-23T07:33:32;25.65;;;4.20;;
53151;SDS011;39234;53.158;6.322;2023-03-23T07:35:59;24.65;;;5.25;;
53151;SDS011;39234;53.158;6.322;2023-03-23T07:38:26;26.83;;;5.30;;
53151;SDS011;39234;53.158;6.322;2023-03-23T07:40:53;25.33;;;4.40;;
53151;SDS011;39234;53.158;6.322;2023-03-23T07:43:18;31.20;;;5.18;;
53151;SDS011;39234;53.158;6.322;2023-03-23T07:45:45;19.30;;;4.22;;
53151;SDS011;39234;53.158;6.322;2023-03-23T07:48:11;28.02;;;4.63;;
53151;SDS011;39234;53.158;6.322;2023-03-23T07:50:37;29.40;;;5.53;;
53151;SDS011;39234;53.158;6.322;2023-03-23T07:53:03;26.15;;;4.47;;
53151;SDS011;39234;53.158;6.322;2023-03-23T07:55:30;23.77;;;4.10;;
53151;SDS011;39234;53.158;6.322;2023-03-23T07:57:55;24.20;;;4.43;;
53151;SDS011;39234;53.158;6.322;2023-03-23T08:00:22;27.80;;;4.95;;
53151;SDS011;39234;53.158;6.322;2023-03-23T08:02:53;28.27;;;5.35;;
53151;SDS011;39234;53.158;6.322;2023-03-23T08:07:47;26.30;;;4.65;;
53151;SDS011;39234;53.158;6.322;2023-03-23T08:10:13;25.65;;;3.92;;
53151;SDS011;39234;53.158;6.322;2023-03-23T08:12:42;29.75;;;5.32;;
53151;SDS011;39234;53.158;6.322;2023-03-23T08:15:09;22.98;;;5.03;;
53151;SDS011;39234;53.158;6.322;2023-03-23T08:17:40;22.48;;;4.85;;
53151;SDS011;39234;53.158;6.322;2023-03-23T08:20:07;26.38;;;5.65;;
53151;SDS011;39234;53.158;6.322;2023-03-23T08:22:37;22.90;;;4.47;;
53151;SDS011;39234;53.158;6.322;2023-03-23T08:25:08;25.35;;;4.70;;
53151;SDS011;39234;53.158;6.322;2023-03-23T08:27:36;24.77;;;4.53;;
53151;SDS011;39234;53.158;6.322;2023-03-23T08:30:03;24.25;;;4.78;;
53151;SDS011;39234;53.158;6.322;2023-03-23T08:32:30;30.13;;;5.03;;
53151;SDS011;39234;53.158;6.322;2023-03-23T08:34:56;23.58;;;5.03;;
53151;SDS011;39234;53.158;6.322;2023-03-23T08:37:23;27.48;;;5.60;;
53151;SDS011;39234;53.158;6.322;2023-03-23T08:39:52;22.17;;;4.25;;
53151;SDS011;39234;53.158;6.322;2023-03-23T08:42:19;30.13;;;5.55;;
53151;SDS011;39234;53.158;6.322;2023-03-23T08:44:45;25.65;;;4.55;;
53151;SDS011;39234;53.158;6.322;2023-03-23T08:47:11;25.45;;;4.97;;
53151;SDS011;39234;53.158;6.322;2023-03-23T08:49:37;26.88;;;4.75;;
53151;SDS011;39234;53.158;6.322;2023-03-23T08:52:02;26.70;;;5.78;;
53151;SDS011;39234;53.158;6.322;2023-03-23T08:54:28;28.88;;;4.85;;
53151;SDS011;39234;53.158;6.322;2023-03-23T08:56:58;28.00;;;4.80;;
53151;SDS011;39234;53.158;6.322;2023-03-23T08:59:25;33.72;;;5.85;;
53151;SDS011;39234;53.158;6.322;2023-03-23T09:01:52;30.95;;;5.47;;
53151;SDS011;39234;53.158;6.322;2023-03-23T09:04:18;31.70;;;7.22;;
53151;SDS011;39234;53.158;6.322;2023-03-23T09:06:43;32.60;;;5.88;;
53151;SDS011;39234;53.158;6.322;2023-03-23T09:09:11;33.20;;;6.63;;
53151;SDS011;39234;53.158;6.322;2023-03-23T09:11:37;29.25;;;5.38;;
53151;SDS011;39234;53.158;6.322;2023-03-23T09:14:03;25.65;;;5.25;;
53151;SDS011;39234;53.158;6.322;2023-03-23T09:16:33;26.08;;;4.90;;
53151;SDS011;39234;53.158;6.322;2023-03-23T09:18:59;32.60;;;6.20;;
53151;SDS011;39234;53.158;6.322;2023-03-23T09:21:26;25.73;;;4.80;;
53151;SDS011;39234;53.158;6.322;2023-03-23T09:23:53;27.08;;;5.07;;
53151;SDS011;39234;53.158;6.322;2023-03-23T09:26:23;28.67;;;4.85;;
53151;SDS011;39234;53.158;6.322;2023-03-23T09:28:50;29.55;;;4.97;;
53151;SDS011;39234;53.158;6.322;2023-03-23T09:31:16;22.05;;;5.38;;
53151;SDS011;39234;53.158;6.322;2023-03-23T09:33:45;25.67;;;5.40;;
53151;SDS011;39234;53.158;6.322;2023-03-23T09:36:12;27.17;;;5.30;;
53151;SDS011;39234;53.158;6.322;2023-03-23T09:38:39;26.63;;;6.22;;
53151;SDS011;39234;53.158;6.322;2023-03-23T09:41:16;32.25;;;5.55;;
53151;SDS011;39234;53.158;6.322;2023-03-23T09:49:15;25.13;;;4.43;;
53151;SDS011;39234;53.158;6.322;2023-03-23T09:51:53;25.47;;;6.23;;
53151;SDS011;39234;53.158;6.322;2023-03-23T09:54:25;23.67;;;5.13;;
53151;SDS011;39234;53.158;6.322;2023-03-23T09:56:57;23.55;;;4.65;;
53151;SDS011;39234;53.158;6.322;2023-03-23T09:59:29;25.65;;;5.13;;
53151;SDS011;39234;53.158;6.322;2023-03-23T10:02:16;24.33;;;5.57;;
53151;SDS011;39234;53.158;6.322;2023-03-23T10:05:20;20.40;;;3.55;;
53151;SDS011;39234;53.158;6.322;2023-03-23T10:07:55;25.60;;;4.93;;
53151;SDS011;39234;53.158;6.322;2023-03-23T10:10:23;23.08;;;4.03;;
53151;SDS011;39234;53.158;6.322;2023-03-23T10:12:56;24.77;;;4.75;;
53151;SDS011;39234;53.158;6.322;2023-03-23T10:15:31;23.38;;;4.60;;
53151;SDS011;39234;53.158;6.322;2023-03-23T10:18:02;27.87;;;4.13;;
53151;SDS011;39234;53.158;6.322;2023-03-23T10:20:42;27.42;;;5.55;;
53151;SDS011;39234;53.158;6.322;2023-03-23T10:25:51;25.90;;;4.88;;
53151;SDS011;39234;53.158;6.322;2023-03-23T10:28:41;22.50;;;4.70;;
53151;SDS011;39234;53.158;6.322;2023-03-23T10:31:19;19.27;;;3.85;;
53151;SDS011;39234;53.158;6.322;2023-03-23T10:33:49;20.58;;;4.68;;
53151;SDS011;39234;53.158;6.322;2023-03-23T10:36:27;21.83;;;4.43;;
53151;SDS011;39234;53.158;6.322;2023-03-23T10:39:13;17.25;;;3.65;;
53151;SDS011;39234;53.158;6.322;2023-03-23T10:41:46;24.05;;;4.78;;
53151;SDS011;39234;53.158;6.322;2023-03-23T10:44:19;21.15;;;4.85;;
53151;SDS011;39234;53.158;6.322;2023-03-23T10:46:51;26.27;;;4.32;;
53151;SDS011;39234;53.158;6.322;2023-03-23T10:49:24;26.05;;;4.22;;
53151;SDS011;39234;53.158;6.322;2023-03-23T10:51:59;22.08;;;5.00;;
53151;SDS011;39234;53.158;6.322;2023-03-23T10:54:37;23.48;;;4.57;;
53151;SDS011;39234;53.158;6.322;2023-03-23T10:57:20;25.45;;;4.93;;
53151;SDS011;39234;53.158;6.322;2023-03-23T10:59:49;21.10;;;3.75;;
53151;SDS011;39234;53.158;6.322;2023-03-23T11:02:19;21.35;;;4.53;;
53151;SDS011;39234;53.158;6.322;2023-03-23T11:04:56;20.25;;;4.70;;
53151;SDS011;39234;53.158;6.322;2023-03-23T11:07:27;22.65;;;4.28;;
53151;SDS011;39234;53.158;6.322;2023-03-23T11:09:56;23.85;;;5.13;;
53151;SDS011;39234;53.158;6.322;2023-03-23T11:12:28;20.40;;;3.70;;
53151;SDS011;39234;53.158;6.322;2023-03-23T11:15:03;24.35;;;4.78;;
53151;SDS011;39234;53.158;6.322;2023-03-23T11:20:10;20.27;;;4.20;;
53151;SDS011;39234;53.158;6.322;2023-03-23T11:22:37;17.38;;;3.17;;
53151;SDS011;39234;53.158;6.322;2023-03-23T11:25:04;20.20;;;3.92;;
53151;SDS011;39234;53.158;6.322;2023-03-23T11:27:31;21.02;;;4.28;;
53151;SDS011;39234;53.158;6.322;2023-03-23T11:30:08;17.45;;;2.92;;
53151;SDS011;39234;53.158;6.322;2023-03-23T11:32:43;20.67;;;3.97;;
53151;SDS011;39234;53.158;6.322;2023-03-23T11:35:20;19.98;;;3.33;;
53151;SDS011;39234;53.158;6.322;2023-03-23T11:37:52;16.17;;;3.28;;
53151;SDS011;39234;53.158;6.322;2023-03-23T11:40:30;16.40;;;3.17;;
53151;SDS011;39234;53.158;6.322;2023-03-23T11:53:48;16.13;;;3.30;;
53151;SDS011;39234;53.158;6.322;2023-03-23T11:58:59;16.13;;;3.65;;
53151;SDS011;39234;53.158;6.322;2023-03-23T12:15:22;14.02;;;3.17;;
53151;SDS011;39234;53.158;6.322;2023-03-23T12:18:06;16.60;;;3.67;;
53151;SDS011;39234;53.158;6.322;2023-03-23T12:26:23;19.20;;;3.47;;
53151;SDS011;39234;53.158;6.322;2023-03-23T12:31:54;15.10;;;2.87;;
53151;SDS011;39234;53.158;6.322;2023-03-23T12:37:23;14.50;;;2.83;;
53151;SDS011;39234;53.158;6.322;2023-03-23T12:48:28;15.00;;;2.88;;
53151;SDS011;39234;53.158;6.322;2023-03-23T12:53:43;18.63;;;3.47;;
53151;SDS011;39234;53.158;6.322;2023-03-23T12:56:35;16.75;;;5.47;;
53151;SDS011;39234;53.158;6.322;2023-03-23T13:02:20;14.77;;;3.08;;
53151;SDS011;39234;53.158;6.322;2023-03-23T13:07:42;17.23;;;3.08;;
53151;SDS011;39234;53.158;6.322;2023-03-23T13:10:17;15.05;;;3.30;;
53151;SDS011;39234;53.158;6.322;2023-03-23T13:12:52;14.50;;;2.90;;
53151;SDS011;39234;53.158;6.322;2023-03-23T13:17:49;17.50;;;3.45;;
53151;SDS011;39234;53.158;6.322;2023-03-23T13:23:22;22.70;;;3.20;;
53151;SDS011;39234;53.158;6.322;2023-03-23T13:25:52;19.38;;;3.65;;
53151;SDS011;39234;53.158;6.322;2023-03-23T13:28:25;18.90;;;4.10;;
53151;SDS011;39234;53.158;6.322;2023-03-23T13:33:50;21.92;;;4.30;;
53151;SDS011;39234;53.158;6.322;2023-03-23T13:36:38;16.77;;;2.90;;
53151;SDS011;39234;53.158;6.322;2023-03-23T13:39:06;16.42;;;3.22;;
53151;SDS011;39234;53.158;6.322;2023-03-23T13:41:48;19.73;;;3.45;;
53151;SDS011;39234;53.158;6.322;2023-03-23T13:44:25;18.02;;;3.42;;
53151;SDS011;39234;53.158;6.322;2023-03-23T13:47:06;21.50;;;3.30;;
53151;SDS011;39234;53.158;6.322;2023-03-23T13:58:26;13.73;;;3.03;;
53151;SDS011;39234;53.158;6.322;2023-03-23T14:08:22;20.10;;;3.35;;
53151;SDS011;39234;53.158;6.322;2023-03-23T14:13:29;15.88;;;3.47;;
53151;SDS011;39234;53.158;6.322;2023-03-23T14:16:02;17.05;;;3.22;;
53151;SDS011;39234;53.158;6.322;2023-03-23T14:18:40;18.70;;;4.22;;
53151;SDS011;39234;53.158;6.322;2023-03-23T14:21:16;17.60;;;3.15;;
53151;SDS011;39234;53.158;6.322;2023-03-23T14:23:42;20.17;;;3.47;;
53151;SDS011;39234;53.158;6.322;2023-03-23T14:26:16;16.60;;;3.25;;
53151;SDS011;39234;53.158;6.322;2023-03-23T14:28:44;17.10;;;3.65;;
53151;SDS011;39234;53.158;6.322;2023-03-23T14:31:16;16.00;;;3.30;;
53151;SDS011;39234;53.158;6.322;2023-03-23T14:33:46;12.48;;;2.88;;
53151;SDS011;39234;53.158;6.322;2023-03-23T14:36:13;14.75;;;3.47;;
53151;SDS011;39234;53.158;6.322;2023-03-23T14:39:35;15.68;;;3.17;;
53151;SDS011;39234;53.158;6.322;2023-03-23T14:41:41;14.18;;;2.33;;
53151;SDS011;39234;53.158;6.322;2023-03-23T14:44:10;17.17;;;2.80;;
53151;SDS011;39234;53.158;6.322;2023-03-23T14:46:49;15.07;;;3.22;;
53151;SDS011;39234;53.158;6.322;2023-03-23T14:49:16;15.50;;;3.10;;
53151;SDS011;39234;53.158;6.322;2023-03-23T14:51:49;14.95;;;2.85;;
53151;SDS011;39234;53.158;6.322;2023-03-23T14:54:22;19.00;;;2.83;;
53151;SDS011;39234;53.158;6.322;2023-03-23T14:59:16;11.77;;;2.47;;
53151;SDS011;39234;53.158;6.322;2023-03-23T15:01:42;13.40;;;2.63;;
53151;SDS011;39234;53.158;6.322;2023-03-23T15:04:18;17.48;;;2.80;;
53151;SDS011;39234;53.158;6.322;2023-03-23T15:06:49;18.02;;;4.35;;
53151;SDS011;39234;53.158;6.322;2023-03-23T15:09:20;13.45;;;2.33;;
53151;SDS011;39234;53.158;6.322;2023-03-23T15:11:53;11.40;;;2.13;;
53151;SDS011;39234;53.158;6.322;2023-03-23T15:14:26;13.20;;;2.72;;
53151;SDS011;39234;53.158;6.322;2023-03-23T15:16:54;10.02;;;2.47;;
53151;SDS011;39234;53.158;6.322;2023-03-23T15:19:36;13.32;;;2.50;;
53151;SDS011;39234;53.158;6.322;2023-03-23T15:25:01;13.18;;;2.08;;
53151;SDS011;39234;53.158;6.322;2023-03-23T15:27:51;15.30;;;2.58;;
53151;SDS011;39234;53.158;6.322;2023-03-23T15:32:49;6.72;;;1.67;;
53151;SDS011;39234;53.158;6.322;2023-03-23T15:35:22;10.05;;;2.05;;
53151;SDS011;39234;53.158;6.322;2023-03-23T15:40:24;13.32;;;2.80;;
53151;SDS011;39234;53.158;6.322;2023-03-23T15:43:05;13.18;;;2.53;;
53151;SDS011;39234;53.158;6.322;2023-03-23T15:45:33;14.85;;;2.58;;
53151;SDS011;39234;53.158;6.322;2023-03-23T15:48:12;13.35;;;2.45;;
53151;SDS011;39234;53.158;6.322;2023-03-23T15:50:39;19.75;;;3.60;;
53151;SDS011;39234;53.158;6.322;2023-03-23T15:53:48;14.77;;;3.40;;
53151;SDS011;39234;53.158;6.322;2023-03-23T15:56:05;14.50;;;3.15;;
53151;SDS011;39234;53.158;6.322;2023-03-23T15:58:33;14.52;;;3.15;;
53151;SDS011;39234;53.158;6.322;2023-03-23T16:01:01;16.95;;;3.08;;
53151;SDS011;39234;53.158;6.322;2023-03-23T16:03:45;20.67;;;3.92;;
53151;SDS011;39234;53.158;6.322;2023-03-23T16:06:14;16.95;;;3.30;;
53151;SDS011;39234;53.158;6.322;2023-03-23T16:08:41;17.27;;;3.10;;
53151;SDS011;39234;53.158;6.322;2023-03-23T16:11:10;14.82;;;3.55;;
53151;SDS011;39234;53.158;6.322;2023-03-23T16:13:37;21.05;;;3.78;;
53151;SDS011;39234;53.158;6.322;2023-03-23T16:16:03;17.67;;;3.20;;
53151;SDS011;39234;53.158;6.322;2023-03-23T16:18:32;21.48;;;3.38;;
53151;SDS011;39234;53.158;6.322;2023-03-23T16:20:58;18.40;;;3.65;;
53151;SDS011;39234;53.158;6.322;2023-03-23T16:23:25;18.20;;;2.78;;
53151;SDS011;39234;53.158;6.322;2023-03-23T16:25:51;20.33;;;4.00;;
53151;SDS011;39234;53.158;6.322;2023-03-23T16:28:17;13.25;;;3.33;;
53151;SDS011;39234;53.158;6.322;2023-03-23T16:30:44;18.83;;;4.50;;
53151;SDS011;39234;53.158;6.322;2023-03-23T16:33:11;19.17;;;3.70;;
53151;SDS011;39234;53.158;6.322;2023-03-23T16:35:37;16.38;;;2.97;;
53151;SDS011;39234;53.158;6.322;2023-03-23T16:38:03;19.52;;;3.63;;
53151;SDS011;39234;53.158;6.322;2023-03-23T16:40:29;16.73;;;3.25;;
53151;SDS011;39234;53.158;6.322;2023-03-23T16:42:55;24.23;;;4.00;;
53151;SDS011;39234;53.158;6.322;2023-03-23T16:45:21;20.02;;;3.22;;
53151;SDS011;39234;53.158;6.322;2023-03-23T16:47:48;28.38;;;4.13;;
53151;SDS011;39234;53.158;6.322;2023-03-23T16:50:15;41.33;;;4.72;;
53151;SDS011;39234;53.158;6.322;2023-03-23T16:52:42;27.75;;;3.45;;
53151;SDS011;39234;53.158;6.322;2023-03-23T16:55:11;18.88;;;4.10;;
53151;SDS011;39234;53.158;6.322;2023-03-23T16:57:38;20.08;;;3.70;;